Data for 09/30/2010

Time Sea-Level Adjusted Pressure Absolute Pressure Temperature Relative Humidity Dew Point   
(mb) (inHg) (mb) (inHg) (C) (F) (%) (C) (F)
00:05 1022 30.18 851 25.13 14.1 57.5 55 5.4 41.7
00:10 1022 30.18 851 25.13 14.1 57.4 56 5.5 41.9
00:15 1022 30.18 851 25.13 14 57.2 56 5.4 41.7
00:20 1022 30.18 851 25.13 14 57.1 55 5.3 41.5
00:25 1022 30.18 851 25.13 14 57.3 55 5.3 41.5
00:30 1022 30.18 851 25.13 14 57.2 55 5.2 41.4
00:35 1022 30.18 851 25.13 14 57.1 55 5.3 41.5
00:40 1021 30.15 851 25.13 14 57.2 55 5.1 41.2
00:45 1021 30.15 851 25.13 14 57.2 55 5.1 41.1
00:50 1021 30.15 851 25.13 14.1 57.3 54 5 41.1
00:55 1021 30.15 851 25.13 14.1 57.4 54 5 41
01:00 1021 30.15 850 25.1 14.2 57.5 53 5 40.9
01:05 1021 30.15 851 25.13 14.1 57.5 54 5 41
01:10 1021 30.15 850 25.1 14 57.1 55 5 41.1
01:15 1021 30.15 850 25.1 13.9 57.1 55 5 41.1
01:20 1021 30.15 850 25.1 13.9 56.9 55 5 41
01:25 1021 30.15 850 25.1 13.9 57 55 4.9 40.9
01:30 1021 30.15 850 25.1 13.9 56.9 55 4.9 40.9
01:35 1021 30.15 850 25.1 13.8 56.9 55 5 40.9
01:40 1021 30.15 850 25.1 13.8 56.8 55 4.9 40.8
01:45 1021 30.15 850 25.1 13.7 56.7 55 4.9 40.8
01:50 1021 30.15 850 25.1 13.7 56.6 55 4.9 40.7
01:55 1021 30.15 850 25.1 13.6 56.5 55 4.9 40.8
02:00 1021 30.15 850 25.1 13.6 56.5 55 4.7 40.5
02:05 1021 30.15 850 25.1 13.7 56.7 54 4.7 40.5
02:10 1021 30.15 850 25.1 13.7 56.6 55 4.8 40.6
02:15 1021 30.15 850 25.1 13.7 56.6 55 4.8 40.7
02:20 1021 30.15 851 25.13 13.6 56.5 55 4.8 40.7
02:25 1021 30.15 851 25.13 13.5 56.3 56 4.9 40.8
02:30 1021 30.15 851 25.13 13.3 55.9 56 4.9 40.8
02:35 1021 30.15 851 25.13 13.2 55.8 56 4.8 40.6
02:40 1021 30.15 851 25.13 13.2 55.7 57 4.8 40.7
02:45 1021 30.15 851 25.13 13.1 55.5 57 4.8 40.7
02:50 1021 30.15 851 25.13 13 55.4 57 4.9 40.7
02:55 1021 30.15 851 25.13 12.9 55.2 58 4.8 40.7
03:00 1021 30.15 851 25.13 12.9 55.1 58 4.8 40.7
03:05 1021 30.15 851 25.13 12.8 55 58 4.7 40.5
03:10 1021 30.15 851 25.13 12.8 55 57 4.6 40.4
03:15 1021 30.15 851 25.13 12.8 55 58 4.7 40.5
03:20 1021 30.15 851 25.13 12.7 54.9 57 4.6 40.3
03:25 1021 30.15 851 25.13 12.8 55 58 4.7 40.4
03:30 1021 30.15 851 25.13 12.6 54.7 58 4.7 40.5
03:35 1021 30.15 851 25.13 12.5 54.4 59 4.7 40.5
03:40 1021 30.15 851 25.13 12.3 54.2 59 4.6 40.3
03:45 1021 30.15 851 25.13 12.2 54 60 4.7 40.4
03:50 1021 30.15 851 25.13 12.1 53.8 60 4.6 40.2
03:55 1021 30.15 851 25.13 12.1 53.8 60 4.5 40.1
04:00 1021 30.15 851 25.13 12.1 53.9 59 4.5 40.1
04:05 1021 30.15 851 25.13 12.2 53.9 59 4.4 40
04:10 1021 30.15 850 25.1 12.2 53.9 59 4.4 40
04:15 1021 30.15 850 25.1 12.1 53.8 59 4.3 39.8
04:20 1021 30.15 850 25.1 12.1 53.7 59 4.3 39.8
04:25 1021 30.15 850 25.1 12 53.6 59 4.3 39.8
04:30 1021 30.15 850 25.1 12 53.5 59 4.4 39.8
04:35 1021 30.15 850 25.1 11.9 53.4 59 4.3 39.7
04:40 1021 30.15 850 25.1 11.9 53.3 60 4.4 39.8
04:45 1021 30.15 850 25.1 11.8 53.2 61 4.5 40
04:50 1021 30.15 850 25.1 11.6 52.9 61 4.4 40
04:55 1021 30.15 850 25.1 11.5 52.6 62 4.5 40.1
05:00 1021 30.15 850 25.1 11.3 52.3 63 4.6 40.3
05:05 1021 30.15 850 25.1 11 51.9 64 4.4 40
05:10 1021 30.15 850 25.1 11.1 51.9 63 4.3 39.7
05:15 1021 30.15 850 25.1 11.2 52.2 62 4.3 39.8
05:20 1021 30.15 850 25.1 11.3 52.3 62 4.3 39.7
05:25 1021 30.15 850 25.1 11.3 52.3 62 4.4 39.9
05:30 1021 30.15 850 25.1 11.2 52.2 63 4.4 39.9
05:35 1021 30.15 850 25.1 11.2 52.1 63 4.4 39.9
05:40 1021 30.15 850 25.1 11.1 52.1 63 4.4 39.9
05:45 1021 30.15 850 25.1 11.1 51.9 63 4.5 40
05:50 1021 30.15 850 25.1 11 51.8 64 4.5 40.1
05:55 1021 30.15 850 25.1 10.9 51.6 65 4.6 40.3
06:00 1021 30.15 850 25.1 10.3 50.6 67 4.5 40.1
06:05 1021 30.15 850 25.1 10.1 50.1 67 4.3 39.8
06:10 1021 30.15 850 25.1 9.8 49.6 68 4.3 39.7
06:15 1021 30.15 850 25.1 9.7 49.5 69 4.3 39.7
06:20 1021 30.15 850 25.1 9.7 49.4 69 4.3 39.8
06:25 1021 30.15 850 25.1 9.6 49.3 69 4.3 39.7
06:30 1021 30.15 851 25.13 9.5 49 70 4.3 39.7
06:35 1021 30.15 851 25.13 9.3 48.8 70 4.2 39.5
06:40 1021 30.15 851 25.13 9.3 48.7 70 4.1 39.4
06:45 1021 30.15 851 25.13 9.2 48.5 71 4.2 39.5
06:50 1021 30.15 851 25.13 9.1 48.3 71 4.1 39.4
06:55 1021 30.15 851 25.13 9 48.2 71 4 39.2
07:00 1021 30.15 851 25.13 8.9 47.9 69 3.5 38.3
07:05 1021 30.15 851 25.13 8.6 47.5 67 2.9 37.2
07:10 1021 30.15 851 25.13 8.4 47 67 2.6 36.7
07:15 1021 30.15 851 25.13 8.4 47.2 67 2.6 36.7
07:20 1022 30.18 851 25.13 8.9 48 66 2.9 37.3
07:25 1022 30.18 851 25.13 9 48.1 66 3 37.3
07:30 1022 30.18 851 25.13 9.1 48.4 63 2.5 36.5
07:35 1022 30.18 851 25.13 9.6 49.2 62 2.6 36.7
07:40 1022 30.18 851 25.13 9.6 49.3 64 3.1 37.6
07:45 1022 30.18 851 25.13 9.8 49.6 62 2.8 37.1
07:50 1022 30.18 851 25.13 9.4 48.9 62 2.6 36.6
07:55 1022 30.18 851 25.13 8.9 48 63 2.3 36.1
08:00 1022 30.18 851 25.13 8.7 47.7 66 2.7 36.9
08:05 1022 30.18 851 25.13 9.3 48.7 62 2.5 36.5
08:10 1022 30.18 851 25.13 9.8 49.7 61 2.8 37
08:15 1022 30.18 851 25.13 9.8 49.6 61 2.6 36.8
08:20 1022 30.18 851 25.13 9.2 48.6 62 2.4 36.3
08:25 1022 30.18 851 25.13 9.3 48.8 62 2.5 36.6
08:30 1022 30.18 851 25.13 8.9 48.1 62 2 35.6
08:35 1022 30.18 851 25.13 9.5 49.1 60 2.1 35.7
08:40 1022 30.18 851 25.13 10 50 60 2.7 36.9
08:45 1022 30.18 851 25.13 10.2 50.4 60 2.8 37
08:50 1022 30.18 851 25.13 10.7 51.3 60 3.3 37.9
08:55 1022 30.18 851 25.13 10.9 51.7 60 3.5 38.3
09:00 1022 30.18 851 25.13 11.2 52.2 60 3.8 38.8
09:05 1022 30.18 851 25.13 11.8 53.2 58 3.7 38.7
09:10 1022 30.18 851 25.13 12.3 54.1 57 4.1 39.4
09:15 1022 30.18 851 25.13 12.4 54.3 57 4.1 39.4
09:20 1022 30.18 851 25.13 12.8 55 56 4.2 39.6
09:25 1022 30.18 851 25.13 13.2 55.7 53 3.9 39
09:30 1022 30.18 851 25.13 13.1 55.6 54 4.1 39.3
09:35 1022 30.18 851 25.13 13.2 55.7 54 4 39.2
09:40 1022 30.18 851 25.13 13.6 56.4 52 4 39.2
09:45 1022 30.18 851 25.13 14.7 58.4 47 3.7 38.7
09:50 1022 30.18 851 25.13 15 59 47 3.8 38.8
09:55 1022 30.18 851 25.13 14.8 58.6 47 3.6 38.5
10:00 1022 30.18 851 25.13 15.5 60 45 3.7 38.6
10:05 1022 30.18 851 25.13 16.1 60.9 43 3.5 38.4
10:10 1022 30.18 851 25.13 15.9 60.6 40 2.4 36.2
10:15 1022 30.18 851 25.13 16.3 61.3 39 2.3 36.1
10:20 1022 30.18 851 25.13 16.5 61.7 38 2.4 36.3
10:25 1022 30.18 851 25.13 17 62.7 37 2.2 36
10:30 1022 30.18 851 25.13 17.3 63.2 36 2.4 36.3
10:35 1022 30.18 851 25.13 17.5 63.4 36 2.3 36.2
10:40 1022 30.18 851 25.13 17.9 64.1 35 2.5 36.5
10:45 1022 30.18 851 25.13 18.3 65 35 2.7 36.8
10:50 1022 30.18 851 25.13 18.1 64.6 36 2.8 37
10:55 1022 30.18 851 25.13 17.9 64.1 37 3 37.3
11:00 1022 30.18 851 25.13 18 64.3 34 2.1 35.8
11:05 1022 30.18 851 25.13 17.7 63.8 36 2.4 36.4
11:10 1022 30.18 851 25.13 17.8 64.1 34 2.1 35.7
11:15 1022 30.18 851 25.13 18.7 65.7 35 2.9 37.2
11:20 1022 30.18 851 25.13 18.6 65.4 35 2.8 37.1
11:25 1022 30.18 851 25.13 18 64.4 34 2.2 36
11:30 1022 30.18 851 25.13 18.6 65.5 34 2.7 36.9
11:35 1022 30.18 851 25.13 18.5 65.2 34 2.4 36.4
11:40 1022 30.18 851 25.13 18.3 65 35 2.9 37.1
11:45 1022 30.18 851 25.13 18.2 64.8 35 2.8 37
11:50 1022 30.18 851 25.13 18.7 65.7 34 2.9 37.2
11:55 1022 30.18 851 25.13 19.2 66.5 34 3.1 37.5
12:00 1021 30.15 851 25.13 19.2 66.5 33 2.8 37
12:05 1021 30.15 851 25.13 19.6 67.2 32 2.8 37
12:10 1021 30.15 851 25.13 20.2 68.4 31 2.8 37
12:15 1021 30.15 851 25.13 20.5 68.8 31 2.9 37.2
12:20 1021 30.15 851 25.13 20.8 69.5 31 3.5 38.2
12:25 1021 30.15 851 25.13 20.4 68.7 33 3.6 38.4
12:30 1021 30.15 850 25.1 20.3 68.5 32 3.2 37.7
12:35 1021 30.15 850 25.1 21 69.8 31 3.5 38.3
12:40 1021 30.15 850 25.1 21 69.8 31 3.4 38.1
12:45 1021 30.15 850 25.1 21.1 69.9 32 4 39.1
12:50 1021 30.15 850 25.1 21.3 70.3 32 4.1 39.4
12:55 1021 30.15 850 25.1 21.6 70.8 31 4 39.3
13:00 1021 30.15 850 25.1 21 69.9 34 4.5 40.2
13:05 1021 30.15 850 25.1 20 68 39 5.8 42.4
13:10 1021 30.15 850 25.1 20.5 68.9 35 4.5 40.1
13:15 1021 30.15 850 25.1 20.7 69.2 36 5.4 41.6
13:20 1021 30.15 850 25.1 20.1 68.1 36 4.6 40.3
13:25 1021 30.15 850 25.1 20.7 69.2 36 5.3 41.6
13:30 1021 30.15 850 25.1 20.7 69.2 35 4.7 40.5
13:35 1021 30.15 850 25.1 20.3 68.6 36 4.8 40.7
13:40 1021 30.15 850 25.1 20.5 68.8 34 4.2 39.5
13:45 1021 30.15 850 25.1 21.9 71.4 33 5 41
13:50 1021 30.15 850 25.1 22.5 72.4 31 4.9 40.8
13:55 1021 30.15 850 25.1 22.6 72.7 32 5.3 41.6
14:00 1021 30.15 850 25.1 21.5 70.6 33 4.9 40.7
14:05 1021 30.15 850 25.1 21.8 71.2 33 4.8 40.7
14:10 1020 30.12 850 25.1 21.9 71.4 33 5.1 41.2
14:15 1020 30.12 850 25.1 22.6 72.6 32 5.3 41.5
14:20 1020 30.12 850 25.1 22.3 72.1 35 6.3 43.3
14:25 1020 30.12 850 25.1 21.9 71.4 32 4.8 40.6
14:30 1020 30.12 850 25.1 21.8 71.3 34 5.3 41.6
14:35 1020 30.12 850 25.1 22.3 72.2 31 4.8 40.6
14:40 1020 30.12 850 25.1 22.5 72.5 34 6.3 43.3
14:45 1020 30.12 849 25.07 22 71.7 33 5.3 41.5
14:50 1020 30.12 849 25.07 23.2 73.7 31 5.5 41.8
14:55 1020 30.12 849 25.07 23.5 74.2 32 6 42.8
15:00 1020 30.12 849 25.07 23.5 74.4 31 5.5 41.9
15:05 1020 30.12 849 25.07 23.9 75.1 30 5.8 42.4
15:10 1020 30.12 849 25.07 23.9 75 30 5.4 41.7
15:15 1020 30.12 849 25.07 24 75.2 30 5.7 42.3
15:20 1020 30.12 849 25.07 23.9 75.1 30 5.5 42
15:25 1020 30.12 849 25.07 23.9 75 30 5.2 41.4
15:30 1020 30.12 849 25.07 23 73.3 30 4.8 40.6
15:35 1020 30.12 849 25.07 22.9 73.1 32 5.7 42.2
15:40 1020 30.12 849 25.07 22.4 72.3 31 4.5 40.1
15:45 1020 30.12 849 25.07 23.5 74.3 29 4.9 40.8
15:50 1020 30.12 849 25.07 23.3 73.9 29 4.5 40
15:55 1020 30.12 849 25.07 24.1 75.5 28 4.6 40.3
16:00 1020 30.12 849 25.07 24.3 75.7 27 4.2 39.5
16:05 1020 30.12 849 25.07 24.5 76.1 27 4.5 40.1
16:10 1020 30.12 849 25.07 23.9 75 27 4.3 39.7
16:15 1020 30.12 849 25.07 23.6 74.6 28 4.5 40.2
16:20 1020 30.12 849 25.07 23.7 74.6 28 4.4 39.8
16:25 1020 30.12 849 25.07 24.3 75.8 27 4.5 40.2
16:30 1020 30.12 849 25.07 24.6 76.4 26 4.1 39.4
16:35 1020 30.12 849 25.07 24.6 76.2 27 4.3 39.8
16:40 1020 30.12 849 25.07 24.4 76 27 4.7 40.4
16:45 1020 30.12 849 25.07 24.2 75.5 27 4.1 39.4
16:50 1020 30.12 849 25.07 24.9 76.7 27 4.8 40.6
16:55 1020 30.12 849 25.07 24.5 76 28 4.9 40.8
17:00 1020 30.12 849 25.07 24.7 76.4 27 4.7 40.5
17:05 1020 30.12 849 25.07 24.4 76 27 4.4 40
17:10 1020 30.12 849 25.07 24.2 75.5 27 4.5 40
17:15 1020 30.12 850 25.1 23.7 74.6 29 4.7 40.5
17:20 1020 30.12 850 25.1 23.3 74 29 4.4 39.9
17:25 1020 30.12 850 25.1 23.5 74.3 29 4.8 40.6
17:30 1020 30.12 850 25.1 23.7 74.6 29 4.6 40.3
17:35 1020 30.12 850 25.1 23.9 75.1 28 4.7 40.5
17:40 1020 30.12 850 25.1 23.7 74.7 28 4.5 40.1
17:45 1020 30.12 850 25.1 23.8 74.8 27 4 39.2
17:50 1021 30.15 850 25.1 24.1 75.3 26 3.8 38.8
17:55 1021 30.15 850 25.1 24 75.3 27 3.9 39
18:00 1021 30.15 850 25.1 24.1 75.4 26 3.8 38.8
18:05 1021 30.15 850 25.1 23.9 75.1 27 4 39.3
18:10 1021 30.15 850 25.1 23.9 75 27 3.8 38.8
18:15 1021 30.15 850 25.1 23.8 74.8 26 3.5 38.3
18:20 1021 30.15 850 25.1 23.7 74.7 26 3.4 38.1
18:25 1021 30.15 850 25.1 23.4 74 32 5.7 42.3
18:30 1021 30.15 850 25.1 22.4 72.3 32 5.2 41.3
18:35 1021 30.15 850 25.1 22.3 72.1 32 5 41
18:40 1021 30.15 850 25.1 22.2 71.9 34 5.9 42.6
18:45 1021 30.15 850 25.1 22 71.6 33 5 41
18:50 1021 30.15 850 25.1 21.8 71.3 34 5.6 42.1
18:55 1021 30.15 850 25.1 21.3 70.3 38 6.6 43.9
19:00 1021 30.15 850 25.1 20.8 69.4 36 5.3 41.6
19:05 1021 30.15 850 25.1 20.2 68.4 47 8.6 47.4
19:10 1021 30.15 850 25.1 19.4 66.8 44 7.1 44.7
19:15 1021 30.15 850 25.1 19.5 67.1 38 5 41
19:20 1021 30.15 850 25.1 19.6 67.3 39 5.3 41.5
19:25 1021 30.15 850 25.1 19.4 66.8 40 5.5 41.9
19:30 1021 30.15 850 25.1 19 66.2 41 5.6 42
19:35 1021 30.15 851 25.13 18.6 65.4 49 7.8 46
19:40 1021 30.15 851 25.13 17.5 63.4 50 7.1 44.8
19:45 1021 30.15 851 25.13 17.2 62.9 49 6.5 43.7
19:50 1022 30.18 851 25.13 16.9 62.5 49 6.4 43.5
19:55 1022 30.18 851 25.13 16.7 62 51 6.6 43.8
20:00 1022 30.18 851 25.13 16.6 61.9 48 5.8 42.4
20:05 1022 30.18 851 25.13 16.7 62 54 7.5 45.4
20:10 1022 30.18 851 25.13 16.3 61.3 53 6.9 44.4
20:15 1022 30.18 851 25.13 16 60.8 49 5.5 41.9
20:20 1022 30.18 851 25.13 16.1 61 51 6.1 43
20:25 1022 30.18 851 25.13 16.1 61 48 5.3 41.5
20:30 1022 30.18 851 25.13 16.4 61.5 48 5.5 41.9
20:35 1022 30.18 851 25.13 16.2 61.1 52 6.3 43.4
20:40 1022 30.18 851 25.13 16 60.8 50 5.7 42.3
20:45 1022 30.18 851 25.13 15.8 60.5 50 5.4 41.8
20:50 1022 30.18 851 25.13 16.2 61.1 44 4.1 39.4
20:55 1022 30.18 851 25.13 17 62.6 43 4.3 39.8
21:00 1022 30.18 851 25.13 17.3 63.2 41 4.2 39.6
21:05 1022 30.18 851 25.13 17.6 63.7 41 4.3 39.7
21:10 1022 30.18 851 25.13 17.7 63.9 41 4.5 40.1
21:15 1022 30.18 851 25.13 17.9 64.2 41 4.6 40.2
21:20 1022 30.18 851 25.13 18 64.4 41 4.8 40.6
21:25 1022 30.18 852 25.16 18.1 64.5 41 4.8 40.7
21:30 1022 30.18 852 25.16 18.1 64.6 42 5.2 41.4
21:35 1022 30.18 852 25.16 17.9 64.3 42 5 41
21:40 1023 30.21 852 25.16 17.9 64.2 43 5.2 41.3
21:45 1023 30.21 852 25.16 17.7 63.9 43 5.1 41.1
21:50 1023 30.21 852 25.16 17.6 63.7 44 5.2 41.4
21:55 1023 30.21 852 25.16 17.5 63.4 45 5.4 41.7
22:00 1023 30.21 852 25.16 17.2 63 45 5.4 41.8
22:05 1023 30.21 852 25.16 17.2 62.9 46 5.6 42.1
22:10 1023 30.21 852 25.16 17 62.6 47 5.7 42.2
22:15 1023 30.21 852 25.16 17 62.5 47 5.8 42.4
22:20 1023 30.21 852 25.16 16.9 62.4 47 5.7 42.3
22:25 1023 30.21 852 25.16 16.9 62.5 47 5.7 42.3
22:30 1023 30.21 852 25.16 16.9 62.4 48 5.8 42.5
22:35 1023 30.21 852 25.16 16.8 62.2 48 5.9 42.5
22:40 1023 30.21 852 25.16 16.7 62 48 5.8 42.5
22:45 1023 30.21 852 25.16 16.6 61.9 49 5.9 42.7
22:50 1023 30.21 852 25.16 16.5 61.8 49 5.9 42.6
22:55 1023 30.21 853 25.19 16.4 61.6 49 5.9 42.7
23:00 1023 30.21 853 25.19 16.4 61.5 49 5.8 42.5
23:05 1023 30.21 853 25.19 16.4 61.5 49 5.9 42.6
23:10 1023 30.21 853 25.19 16.4 61.6 49 5.8 42.5
23:15 1023 30.21 853 25.19 16.4 61.5 49 5.8 42.5
23:20 1024 30.24 853 25.19 16.4 61.4 49 5.8 42.5
23:25 1024 30.24 853 25.19 16.4 61.5 49 5.8 42.4
23:30 1024 30.24 853 25.19 16.5 61.7 49 5.8 42.4
23:35 1024 30.24 853 25.19 16.4 61.5 49 5.8 42.4
23:40 1024 30.24 853 25.19 16.3 61.3 50 5.8 42.5
23:45 1024 30.24 853 25.19 16.2 61.2 50 5.8 42.5
23:50 1024 30.24 853 25.19 16.1 61 50 5.9 42.6
23:55 1024 30.24 853 25.19 16 60.9 51 6 42.7
24:00 1024 30.24 853 25.19 15.9 60.7 51 5.9 42.7